Time;durP1;ratioP1;P1;durP2;ratioP2;P2;SDS_P1;SDS_P2;PMS_P1;PMS_P2;Temp;Humidity;BMP_temperature;BMP_pressure;BME280_temperature;BME280_humidity;BME280_pressure;Samples;Min_cycle;Max_cycle;Signal;HPM_P1;HPM_P2
2021/12/28 00:01:15;;;;;;;35.07;20.93;;;1.10;99.90;;;;;;5062998;28;20188;-54
2021/12/28 00:03:42;;;;;;;31.42;20.75;;;1.10;99.90;;;;;;5075176;28;20197;-54
2021/12/28 00:06:09;;;;;;;35.90;21.10;;;1.00;99.90;;;;;;5073984;28;20193;-52
2021/12/28 00:08:35;;;;;;;29.77;20.52;;;1.00;99.90;;;;;;5064034;28;20272;-53
2021/12/28 00:11:02;;;;;;;33.33;21.73;;;1.00;99.90;;;;;;5074682;28;20196;-51
2021/12/28 00:13:30;;;;;;;33.40;20.23;;;1.00;99.90;;;;;;5086396;28;20176;-53
2021/12/28 00:18:22;;;;;;;32.20;20.47;;;1.00;99.90;;;;;;5077968;28;20291;-57
2021/12/28 00:20:52;;;;;;;30.08;19.58;;;1.00;99.90;;;;;;5065666;28;20267;-52
2021/12/28 00:23:38;;;;;;;32.47;20.45;;;1.00;99.90;;;;;;5080892;28;20708;-52
2021/12/28 00:26:06;;;;;;;33.13;20.17;;;1.00;99.90;;;;;;5084334;28;20177;-51
2021/12/28 00:28:31;;;;;;;34.30;20.80;;;1.00;99.90;;;;;;5071831;28;20662;-50
2021/12/28 00:30:58;;;;;;;34.80;22.60;;;1.00;99.90;;;;;;5069704;28;20186;-51
2021/12/28 00:33:25;;;;;;;32.35;21.77;;;1.00;99.90;;;;;;5077228;28;20267;-56
2021/12/28 00:35:52;;;;;;;33.80;20.27;;;1.10;99.90;;;;;;5076660;28;20176;-53
2021/12/28 00:38:22;;;;;;;36.00;22.52;;;1.10;99.90;;;;;;5075937;28;20698;-53
2021/12/28 00:40:50;;;;;;;32.20;21.25;;;1.10;99.90;;;;;;5075503;28;20213;-51
2021/12/28 00:43:16;;;;;;;34.80;21.50;;;1.10;99.90;;;;;;5076192;28;20178;-51
2021/12/28 00:45:42;;;;;;;39.73;23.40;;;1.10;99.90;;;;;;5074589;28;20192;-49
2021/12/28 00:48:07;;;;;;;33.97;21.95;;;1.10;99.90;;;;;;5076709;28;20486;-55
2021/12/28 00:50:33;;;;;;;33.60;20.10;;;1.20;99.90;;;;;;5077351;28;20283;-54
2021/12/28 00:52:59;;;;;;;35.10;21.45;;;1.20;99.90;;;;;;5083701;28;20234;-48
2021/12/28 00:55:25;;;;;;;33.97;20.30;;;1.20;99.90;;;;;;5079787;28;20197;-51
2021/12/28 00:57:51;;;;;;;34.95;21.40;;;1.20;99.90;;;;;;5063718;28;20300;-49
2021/12/28 01:00:22;;;;;;;34.90;22.00;;;1.20;99.90;;;;;;5073679;28;20174;-47
2021/12/28 01:02:49;;;;;;;35.05;21.75;;;1.30;99.90;;;;;;5070674;28;20256;-50
2021/12/28 01:05:16;;;;;;;33.30;21.27;;;1.30;99.90;;;;;;5080000;28;20622;-57
2021/12/28 01:07:41;;;;;;;35.95;21.75;;;1.30;99.90;;;;;;5078738;28;20260;-56
2021/12/28 01:10:10;;;;;;;30.03;21.03;;;1.40;99.90;;;;;;5084402;28;20354;-49
2021/12/28 01:12:36;;;;;;;31.20;19.70;;;1.40;99.90;;;;;;5075749;28;20188;-53
2021/12/28 01:15:03;;;;;;;31.23;20.87;;;1.40;99.90;;;;;;5055774;28;20185;-54
2021/12/28 01:17:29;;;;;;;33.40;20.75;;;1.40;99.90;;;;;;5051640;28;20357;-47
2021/12/28 01:19:54;;;;;;;32.97;20.77;;;1.40;99.90;;;;;;5070384;28;20374;-59
2021/12/28 01:22:20;;;;;;;31.20;20.43;;;1.40;99.90;;;;;;5050296;28;20265;-58
2021/12/28 01:24:45;;;;;;;32.30;20.87;;;1.50;99.90;;;;;;5070009;28;20283;-53
2021/12/28 01:27:11;;;;;;;32.03;20.00;;;1.60;99.90;;;;;;5073287;28;20256;-55
2021/12/28 01:29:36;;;;;;;30.97;19.93;;;1.50;99.90;;;;;;5080374;28;20197;-55
2021/12/28 01:32:03;;;;;;;33.07;20.80;;;1.60;99.90;;;;;;5072750;28;20180;-61
2021/12/28 01:34:28;;;;;;;32.00;20.85;;;1.70;99.90;;;;;;5071563;28;20185;-52
2021/12/28 01:36:54;;;;;;;32.30;20.90;;;1.70;99.90;;;;;;5067619;28;20569;-57
2021/12/28 01:39:20;;;;;;;34.90;20.60;;;1.70;99.90;;;;;;5082611;28;20211;-56
2021/12/28 01:41:45;;;;;;;32.63;20.30;;;1.80;99.90;;;;;;5080724;28;20548;-51
2021/12/28 01:44:11;;;;;;;30.67;20.27;;;1.70;99.90;;;;;;5076892;28;20173;-51
2021/12/28 01:46:38;;;;;;;31.20;21.05;;;1.80;99.90;;;;;;5071796;28;20235;-55
2021/12/28 01:49:06;;;;;;;33.17;21.17;;;1.70;99.90;;;;;;5076196;28;20188;-54
2021/12/28 01:51:33;;;;;;;34.95;21.60;;;1.70;99.90;;;;;;5067060;28;20194;-52
2021/12/28 01:54:00;;;;;;;33.13;21.40;;;1.70;99.90;;;;;;5058730;28;20181;-49
2021/12/28 01:56:36;;;;;;;32.75;21.65;;;1.70;99.90;;;;;;5075935;28;20173;-53
2021/12/28 01:59:03;;;;;;;31.52;20.25;;;1.80;99.90;;;;;;5075527;28;20580;-51
2021/12/28 02:01:29;;;;;;;31.70;21.02;;;1.80;99.90;;;;;;5076176;28;20208;-57
2021/12/28 02:03:55;;;;;;;31.83;20.87;;;1.90;99.90;;;;;;5068955;28;20209;-50
2021/12/28 02:06:22;;;;;;;31.33;21.70;;;1.90;99.90;;;;;;5062144;28;20194;-55
2021/12/28 02:08:48;;;;;;;33.83;21.63;;;1.90;99.90;;;;;;5054856;28;20188;-54
2021/12/28 02:11:14;;;;;;;34.67;21.50;;;1.90;99.90;;;;;;5075723;28;20436;-54
2021/12/28 02:13:40;;;;;;;34.85;21.90;;;1.90;99.90;;;;;;5077477;28;20431;-52
2021/12/28 02:16:07;;;;;;;36.15;21.05;;;1.90;99.90;;;;;;5070949;28;20190;-60
2021/12/28 02:18:33;;;;;;;30.20;20.65;;;2.00;99.90;;;;;;5076222;28;20283;-50
2021/12/28 02:21:00;;;;;;;31.50;22.20;;;2.00;99.90;;;;;;5077544;28;20176;-51
2021/12/28 02:23:26;;;;;;;38.50;23.08;;;1.90;99.90;;;;;;5075357;28;20187;-58
2021/12/28 02:25:52;;;;;;;34.20;21.67;;;1.90;99.90;;;;;;5078766;28;20197;-51
2021/12/28 02:28:18;;;;;;;33.93;21.50;;;2.00;99.90;;;;;;5075318;28;20181;-52
2021/12/28 02:30:47;;;;;;;39.10;22.10;;;1.90;99.90;;;;;;5078951;28;20527;-52
2021/12/28 02:33:13;;;;;;;33.83;22.63;;;2.00;99.90;;;;;;5075888;28;20276;-52
2021/12/28 02:35:40;;;;;;;38.67;22.30;;;1.90;99.90;;;;;;5075830;28;20224;-52
2021/12/28 02:38:08;;;;;;;33.75;21.92;;;1.90;99.90;;;;;;5081513;28;20209;-54
2021/12/28 02:40:35;;;;;;;33.80;21.63;;;1.90;99.90;;;;;;5081443;28;20200;-49
2021/12/28 02:43:02;;;;;;;35.72;21.67;;;1.90;99.90;;;;;;5068418;28;20918;-53
2021/12/28 02:45:35;;;;;;;35.47;21.77;;;2.00;99.90;;;;;;5074502;28;20539;-52
2021/12/28 02:48:02;;;;;;;34.58;21.38;;;1.90;99.90;;;;;;5077023;28;20221;-52
2021/12/28 02:50:41;;;;;;;38.22;23.23;;;2.00;99.90;;;;;;5068591;28;20185;-53
2021/12/28 02:53:08;;;;;;;35.53;22.15;;;1.90;99.90;;;;;;5077060;28;20185;-52
2021/12/28 02:55:36;;;;;;;39.30;22.67;;;1.90;99.90;;;;;;5080664;28;20193;-51
2021/12/28 02:58:06;;;;;;;42.47;23.40;;;1.90;99.90;;;;;;5068704;28;20209;-56
2021/12/28 03:00:39;;;;;;;41.28;22.00;;;1.90;99.90;;;;;;5074435;28;20768;-54
2021/12/28 03:03:12;;;;;;;37.72;23.95;;;1.90;99.90;;;;;;5071730;28;20209;-51
2021/12/28 03:05:40;;;;;;;39.67;23.75;;;1.90;99.90;;;;;;5066382;28;20173;-52
2021/12/28 03:08:07;;;;;;;38.25;23.60;;;1.90;99.90;;;;;;5072956;28;20173;-53
2021/12/28 03:10:33;;;;;;;39.35;25.02;;;2.00;99.90;;;;;;5077359;28;20188;-53
2021/12/28 03:12:59;;;;;;;44.15;24.77;;;1.90;99.90;;;;;;5079151;28;20188;-51
2021/12/28 03:15:25;;;;;;;39.13;24.67;;;1.90;99.90;;;;;;5054467;28;20192;-53
2021/12/28 03:17:50;;;;;;;43.07;25.93;;;1.90;99.90;;;;;;5075335;28;20531;-56
2021/12/28 03:20:18;;;;;;;40.63;24.50;;;1.90;99.90;;;;;;5077931;28;20189;-52
2021/12/28 03:22:44;;;;;;;38.35;23.55;;;1.90;99.90;;;;;;5078860;28;20536;-50
2021/12/28 03:25:10;;;;;;;44.05;23.85;;;1.90;99.90;;;;;;5071334;28;20192;-57
2021/12/28 03:27:36;;;;;;;38.78;24.58;;;1.90;99.90;;;;;;5081054;28;20187;-54
2021/12/28 03:30:07;;;;;;;41.67;25.30;;;1.80;99.90;;;;;;5071509;28;20182;-54
2021/12/28 03:32:32;;;;;;;41.28;24.63;;;1.80;99.90;;;;;;5069209;28;20209;-51
2021/12/28 03:34:58;;;;;;;44.43;24.70;;;1.80;99.90;;;;;;5069752;28;20208;-54
2021/12/28 03:37:23;;;;;;;40.63;24.40;;;1.90;99.90;;;;;;5063172;28;20216;-50
2021/12/28 03:39:49;;;;;;;42.20;25.73;;;1.90;99.90;;;;;;5072562;28;20269;-51
2021/12/28 03:42:15;;;;;;;39.40;24.80;;;1.80;99.90;;;;;;5075450;28;20174;-53
2021/12/28 03:44:40;;;;;;;38.27;24.53;;;1.80;99.90;;;;;;5067334;28;20186;-50
2021/12/28 03:47:06;;;;;;;40.30;25.53;;;1.80;99.90;;;;;;5077498;28;20696;-53
2021/12/28 03:49:33;;;;;;;48.15;26.20;;;1.70;99.90;;;;;;5075853;28;20180;-51
2021/12/28 03:51:59;;;;;;;44.75;26.67;;;1.70;99.90;;;;;;5088025;28;20177;-49
2021/12/28 03:54:25;;;;;;;45.92;28.10;;;1.70;99.90;;;;;;5081050;28;20191;-53
2021/12/28 03:56:51;;;;;;;45.73;27.40;;;1.70;99.90;;;;;;5084357;28;20693;-52
2021/12/28 03:59:17;;;;;;;46.93;25.70;;;1.70;99.90;;;;;;5080791;28;20188;-51
2021/12/28 04:01:42;;;;;;;49.78;26.17;;;1.70;99.90;;;;;;5071413;28;20188;-53
2021/12/28 04:04:08;;;;;;;39.77;26.50;;;1.70;99.90;;;;;;5078259;28;20173;-52
2021/12/28 04:06:35;;;;;;;45.07;24.90;;;1.80;99.90;;;;;;5075814;28;20181;-51
2021/12/28 04:09:03;;;;;;;43.45;25.08;;;1.70;99.90;;;;;;5082189;28;20189;-48
2021/12/28 04:11:29;;;;;;;38.33;23.17;;;1.70;99.90;;;;;;5076224;28;20186;-48
2021/12/28 04:14:04;;;;;;;45.65;26.75;;;1.70;99.90;;;;;;5074607;28;20178;-50
2021/12/28 04:16:31;;;;;;;45.25;26.20;;;1.70;99.90;;;;;;5071971;28;20691;-49
2021/12/28 04:18:57;;;;;;;43.97;24.80;;;1.60;99.90;;;;;;5056503;28;20296;-52
2021/12/28 04:21:23;;;;;;;45.25;23.52;;;1.60;99.90;;;;;;5080040;28;20286;-49
2021/12/28 04:23:48;;;;;;;41.75;24.90;;;1.60;99.90;;;;;;5079231;28;20180;-53
2021/12/28 04:26:15;;;;;;;37.40;23.03;;;1.60;99.90;;;;;;5079050;28;20531;-55
2021/12/28 04:28:42;;;;;;;44.13;24.25;;;1.70;99.90;;;;;;5054902;28;20213;-52
2021/12/28 04:31:07;;;;;;;44.35;22.95;;;1.70;99.90;;;;;;5087072;28;20230;-51
2021/12/28 04:33:37;;;;;;;43.37;24.50;;;1.70;99.90;;;;;;5062908;28;20655;-49
2021/12/28 04:36:07;;;;;;;37.38;22.40;;;1.70;99.90;;;;;;5063406;28;20643;-52
2021/12/28 04:38:33;;;;;;;39.58;23.08;;;1.60;99.90;;;;;;5070550;28;20639;-51
2021/12/28 04:40:59;;;;;;;40.85;23.80;;;1.70;99.90;;;;;;5082587;28;20204;-53
2021/12/28 04:43:25;;;;;;;41.93;24.13;;;1.60;99.90;;;;;;5081362;28;21002;-54
2021/12/28 04:45:50;;;;;;;41.53;24.17;;;1.60;99.90;;;;;;5078351;28;20551;-52
2021/12/28 04:48:16;;;;;;;38.13;23.83;;;1.60;99.90;;;;;;5071556;28;20562;-50
2021/12/28 04:50:43;;;;;;;47.80;25.77;;;1.60;99.90;;;;;;5074843;28;20594;-49
2021/12/28 04:53:11;;;;;;;38.40;23.50;;;1.60;99.90;;;;;;5064930;28;20186;-51
2021/12/28 04:55:45;;;;;;;41.25;21.77;;;1.60;99.90;;;;;;5070572;28;20178;-54
2021/12/28 04:58:12;;;;;;;37.45;22.50;;;1.60;99.90;;;;;;5074709;28;20209;-52
2021/12/28 05:00:39;;;;;;;36.85;22.45;;;1.60;99.90;;;;;;5060132;28;20185;-50
2021/12/28 05:03:05;;;;;;;41.05;22.88;;;1.60;99.90;;;;;;5066513;28;20277;-53
2021/12/28 05:05:31;;;;;;;38.00;22.67;;;1.60;99.90;;;;;;5069422;28;20291;-50
2021/12/28 05:07:57;;;;;;;40.30;22.73;;;1.50;99.90;;;;;;5061517;28;20202;-53
2021/12/28 05:10:23;;;;;;;39.70;23.02;;;1.50;99.90;;;;;;5071902;28;20986;-50
2021/12/28 05:12:50;;;;;;;37.10;21.27;;;1.40;99.90;;;;;;5068862;28;20174;-53
2021/12/28 05:15:16;;;;;;;39.70;21.40;;;1.50;99.90;;;;;;5076005;28;20306;-54
2021/12/28 05:17:42;;;;;;;39.20;20.98;;;1.50;99.90;;;;;;5072901;28;20261;-51
2021/12/28 05:20:08;;;;;;;39.63;21.70;;;1.50;99.90;;;;;;5075502;28;20634;-52
2021/12/28 05:22:34;;;;;;;33.80;20.30;;;1.50;99.90;;;;;;5076768;28;20186;-50
2021/12/28 05:25:00;;;;;;;32.47;20.30;;;1.40;99.90;;;;;;5081359;28;20913;-54
2021/12/28 05:27:25;;;;;;;38.13;21.37;;;1.40;99.90;;;;;;5051000;28;20436;-48
2021/12/28 05:29:51;;;;;;;32.53;20.50;;;1.30;99.90;;;;;;5063393;28;20197;-51
2021/12/28 05:32:17;;;;;;;35.00;20.10;;;1.30;99.90;;;;;;5073536;28;20180;-51
2021/12/28 05:34:43;;;;;;;35.87;19.50;;;1.30;99.90;;;;;;5079621;28;20543;-50
2021/12/28 05:37:09;;;;;;;34.43;19.63;;;1.50;99.90;;;;;;5060676;28;20450;-53
2021/12/28 05:39:35;;;;;;;35.45;19.83;;;1.50;99.90;;;;;;5059053;28;20646;-53
2021/12/28 05:42:00;;;;;;;37.83;21.42;;;1.50;99.90;;;;;;5060937;28;20671;-50
2021/12/28 05:44:27;;;;;;;35.80;20.77;;;1.50;99.90;;;;;;5060708;28;20178;-49
2021/12/28 05:46:54;;;;;;;32.03;18.80;;;1.50;99.90;;;;;;5061277;28;20206;-51
2021/12/28 05:49:19;;;;;;;38.53;20.45;;;1.50;99.90;;;;;;5050799;28;20174;-49
2021/12/28 05:51:45;;;;;;;40.50;20.63;;;1.40;99.90;;;;;;5050398;28;20873;-52
2021/12/28 05:54:12;;;;;;;31.73;18.40;;;1.40;99.90;;;;;;5070237;28;20194;-51
2021/12/28 05:56:37;;;;;;;36.17;19.05;;;1.40;99.90;;;;;;5077352;28;20185;-53
2021/12/28 05:59:03;;;;;;;35.67;19.97;;;1.40;99.90;;;;;;5066101;28;20222;-52
2021/12/28 06:01:29;;;;;;;32.97;20.20;;;1.40;99.90;;;;;;5073493;28;20511;-51
2021/12/28 06:03:54;;;;;;;32.03;19.37;;;1.30;99.90;;;;;;5072634;28;20627;-49
2021/12/28 06:06:20;;;;;;;33.50;18.93;;;1.30;99.90;;;;;;5077555;28;20238;-50
2021/12/28 06:08:45;;;;;;;35.33;19.07;;;1.40;99.90;;;;;;5077376;28;20186;-55
2021/12/28 06:11:13;;;;;;;37.70;19.77;;;1.40;99.90;;;;;;5081869;28;20268;-49
2021/12/28 06:13:42;;;;;;;38.50;20.02;;;1.30;99.90;;;;;;5068073;28;20238;-48
2021/12/28 06:16:09;;;;;;;34.08;18.13;;;1.30;99.90;;;;;;5058060;28;20219;-50
2021/12/28 06:18:35;;;;;;;35.90;19.10;;;1.40;99.90;;;;;;5059659;28;20230;-52
2021/12/28 06:21:01;;;;;;;33.80;18.53;;;1.40;99.90;;;;;;5073968;28;20204;-51
2021/12/28 06:23:26;;;;;;;33.37;19.20;;;1.30;99.90;;;;;;5077040;28;20428;-49
2021/12/28 06:25:52;;;;;;;34.07;19.90;;;1.30;99.90;;;;;;5070192;28;20277;-48
2021/12/28 06:28:17;;;;;;;36.53;17.60;;;1.40;99.90;;;;;;5073812;28;20177;-52
2021/12/28 06:30:43;;;;;;;29.30;16.33;;;1.40;99.90;;;;;;5069601;28;20201;-48
2021/12/28 06:33:09;;;;;;;33.47;19.00;;;1.30;99.90;;;;;;5068689;28;20185;-50
2021/12/28 06:35:35;;;;;;;33.07;18.20;;;1.40;99.90;;;;;;5060739;28;20181;-52
2021/12/28 06:38:00;;;;;;;35.40;17.93;;;1.40;99.90;;;;;;5082364;28;20903;-49
2021/12/28 06:40:26;;;;;;;33.60;18.37;;;1.40;99.90;;;;;;5079006;28;20439;-52
2021/12/28 06:42:52;;;;;;;30.10;17.60;;;1.40;99.90;;;;;;5069557;28;20240;-52
2021/12/28 06:45:18;;;;;;;38.80;20.60;;;1.40;99.90;;;;;;5081058;28;20522;-50
2021/12/28 06:47:44;;;;;;;32.07;18.07;;;1.40;99.90;;;;;;5077252;28;20439;-51
2021/12/28 06:50:10;;;;;;;38.50;19.63;;;1.50;99.90;;;;;;5067128;28;20184;-53
2021/12/28 06:52:36;;;;;;;33.28;18.73;;;1.40;99.90;;;;;;5067555;28;20194;-48
2021/12/28 06:55:03;;;;;;;29.25;17.85;;;1.40;99.90;;;;;;5074497;28;20193;-51
2021/12/28 06:57:28;;;;;;;30.08;18.27;;;1.50;99.90;;;;;;5077741;28;20223;-49
2021/12/28 06:59:54;;;;;;;37.80;19.50;;;1.50;99.90;;;;;;5075597;28;20185;-50
2021/12/28 07:02:19;;;;;;;36.70;18.67;;;1.50;99.90;;;;;;5053739;28;20635;-50
2021/12/28 07:04:45;;;;;;;32.30;19.23;;;1.50;99.90;;;;;;5081963;28;20180;-50
2021/12/28 07:07:12;;;;;;;31.50;18.60;;;1.50;99.90;;;;;;5079048;28;20182;-52
2021/12/28 07:09:37;;;;;;;33.47;18.48;;;1.50;99.90;;;;;;5081318;28;20462;-47
2021/12/28 07:12:04;;;;;;;29.33;17.63;;;1.50;99.90;;;;;;5077424;28;20891;-50
2021/12/28 07:14:30;;;;;;;31.48;18.65;;;1.60;99.90;;;;;;5091088;28;20184;-53
2021/12/28 07:16:56;;;;;;;30.33;18.20;;;1.60;99.90;;;;;;5085698;28;20256;-51
2021/12/28 07:19:23;;;;;;;38.00;19.35;;;1.60;99.90;;;;;;5066784;28;20182;-48
2021/12/28 07:21:48;;;;;;;31.50;17.98;;;1.70;99.90;;;;;;5084946;28;20184;-50
2021/12/28 07:24:14;;;;;;;30.40;18.20;;;1.70;99.90;;;;;;5083013;28;20177;-47
2021/12/28 07:26:39;;;;;;;34.23;20.17;;;1.70;99.90;;;;;;5065478;28;20182;-50
2021/12/28 07:29:06;;;;;;;31.23;17.52;;;1.70;99.90;;;;;;5081212;28;20577;-52
2021/12/28 07:31:32;;;;;;;30.83;18.15;;;1.70;99.90;;;;;;5091273;28;20176;-53
2021/12/28 07:33:58;;;;;;;28.60;17.77;;;1.80;99.90;;;;;;5076205;28;20517;-49
2021/12/28 07:36:24;;;;;;;30.60;19.33;;;1.80;99.90;;;;;;5081622;28;20188;-52
2021/12/28 07:38:50;;;;;;;31.17;18.20;;;1.80;99.90;;;;;;5084541;28;20205;-48
2021/12/28 07:41:15;;;;;;;29.90;17.83;;;1.80;99.90;;;;;;5078708;28;20170;-49
2021/12/28 07:43:41;;;;;;;27.43;18.83;;;1.80;99.90;;;;;;5076486;28;20907;-51
2021/12/28 07:46:07;;;;;;;31.57;19.37;;;1.90;99.90;;;;;;5085871;28;20173;-49
2021/12/28 07:48:34;;;;;;;30.57;17.20;;;1.90;99.90;;;;;;5041478;28;20191;-50
2021/12/28 07:51:00;;;;;;;31.38;18.08;;;1.90;99.90;;;;;;5076416;28;20190;-51
2021/12/28 07:53:25;;;;;;;29.13;17.63;;;1.90;99.90;;;;;;5082060;28;20240;-50
2021/12/28 07:55:51;;;;;;;31.87;18.70;;;1.90;99.90;;;;;;5083903;28;21018;-49
2021/12/28 07:58:17;;;;;;;31.67;18.27;;;1.90;99.90;;;;;;5079793;28;20300;-53
2021/12/28 08:00:43;;;;;;;32.08;20.05;;;1.90;99.90;;;;;;5075514;28;20174;-51
2021/12/28 08:03:08;;;;;;;29.80;18.20;;;2.00;99.90;;;;;;5075721;28;20575;-49
2021/12/28 08:05:36;;;;;;;31.60;18.40;;;2.00;99.90;;;;;;5086063;28;20260;-47
2021/12/28 08:08:03;;;;;;;33.30;20.55;;;2.00;99.90;;;;;;5075858;28;20268;-48
2021/12/28 08:10:28;;;;;;;28.85;16.60;;;2.00;99.90;;;;;;5073504;28;20192;-50
2021/12/28 08:12:56;;;;;;;31.00;17.47;;;2.00;99.90;;;;;;5072812;28;20555;-49
2021/12/28 08:15:24;;;;;;;26.00;18.05;;;2.10;99.90;;;;;;5073823;28;20514;-53
2021/12/28 08:17:49;;;;;;;29.52;16.02;;;2.20;99.90;;;;;;5071333;28;20229;-53
2021/12/28 08:20:16;;;;;;;28.77;16.67;;;2.30;99.90;;;;;;5077080;28;20184;-49
2021/12/28 08:22:43;;;;;;;26.30;17.73;;;2.40;99.90;;;;;;5072509;28;20173;-53
2021/12/28 08:25:11;;;;;;;28.10;17.38;;;2.60;99.90;;;;;;5052559;28;20174;-50
2021/12/28 08:27:38;;;;;;;23.05;16.60;;;2.60;99.90;;;;;;5069390;28;20238;-52
2021/12/28 08:30:06;;;;;;;28.83;17.58;;;2.60;99.90;;;;;;5071003;28;20174;-50
2021/12/28 08:32:32;;;;;;;25.40;17.15;;;2.60;99.90;;;;;;5064485;28;20185;-53
2021/12/28 08:34:57;;;;;;;23.83;16.37;;;2.70;99.90;;;;;;5066944;28;20189;-61
2021/12/28 08:37:23;;;;;;;26.93;16.93;;;2.70;99.90;;;;;;5067722;28;20215;-61
2021/12/28 08:39:49;;;;;;;30.70;18.17;;;2.70;99.90;;;;;;5067394;28;20173;-62
2021/12/28 08:42:14;;;;;;;27.47;18.40;;;2.70;99.90;;;;;;5069423;28;20424;-62
2021/12/28 08:44:40;;;;;;;27.77;17.47;;;2.70;99.90;;;;;;5052075;28;20265;-61
2021/12/28 08:47:06;;;;;;;27.07;17.47;;;2.60;99.90;;;;;;5070725;28;20178;-62
2021/12/28 08:49:31;;;;;;;29.67;17.97;;;2.70;99.90;;;;;;5069763;28;20300;-61
2021/12/28 08:51:57;;;;;;;29.73;17.50;;;2.70;99.90;;;;;;5056735;28;20293;-61
2021/12/28 08:54:22;;;;;;;27.83;17.77;;;2.60;99.90;;;;;;5063635;28;20192;-63
2021/12/28 08:56:50;;;;;;;26.70;17.33;;;2.60;99.90;;;;;;5059045;28;20216;-61
2021/12/28 08:59:16;;;;;;;26.33;17.63;;;2.50;99.90;;;;;;5044680;28;20202;-61
2021/12/28 09:01:42;;;;;;;27.07;17.70;;;2.50;99.90;;;;;;5055693;28;20186;-60
2021/12/28 09:04:07;;;;;;;28.00;17.20;;;2.50;99.90;;;;;;5055840;28;20445;-60
2021/12/28 09:06:33;;;;;;;26.00;17.53;;;2.80;99.90;;;;;;5039803;28;20213;-61
2021/12/28 09:08:59;;;;;;;28.07;17.80;;;3.10;99.90;;;;;;5054334;28;20205;-61
2021/12/28 09:11:25;;;;;;;21.97;16.00;;;3.40;99.90;;;;;;5066116;28;20461;-61
2021/12/28 09:13:52;;;;;;;25.37;16.63;;;3.50;99.90;;;;;;5066623;28;20182;-61
2021/12/28 09:16:17;;;;;;;26.92;18.05;;;3.50;99.90;;;;;;5066534;28;20567;-61
2021/12/28 09:18:43;;;;;;;26.20;17.10;;;3.50;99.90;;;;;;5066253;28;20333;-60
2021/12/28 09:21:09;;;;;;;24.40;16.90;;;3.90;99.90;;;;;;5069413;28;20182;-60
2021/12/28 09:23:35;;;;;;;25.07;16.07;;;4.30;99.90;;;;;;5066823;28;20632;-60
2021/12/28 09:26:01;;;;;;;23.10;17.27;;;4.70;99.90;;;;;;5053329;28;20924;-60
2021/12/28 09:28:26;;;;;;;23.20;17.03;;;5.10;99.90;;;;;;5065621;28;20501;-63
2021/12/28 09:30:52;;;;;;;22.77;16.77;;;5.40;99.90;;;;;;5069217;28;21069;-61
2021/12/28 09:33:19;;;;;;;25.93;17.53;;;5.70;99.90;;;;;;5065040;28;20189;-59
2021/12/28 09:35:45;;;;;;;25.90;17.85;;;6.00;99.90;;;;;;5067159;28;20815;-62
2021/12/28 09:38:11;;;;;;;24.63;16.93;;;6.00;99.90;;;;;;5068097;28;20664;-62
2021/12/28 09:40:37;;;;;;;24.90;17.83;;;6.40;99.90;;;;;;5072641;28;20454;-61
2021/12/28 09:43:06;;;;;;;20.70;16.30;;;6.50;99.00;;;;;;5083448;28;20445;-60
2021/12/28 09:45:33;;;;;;;23.40;16.60;;;6.80;97.80;;;;;;5079858;28;20434;-61
2021/12/28 09:47:59;;;;;;;24.20;17.03;;;6.90;97.10;;;;;;5075424;28;20423;-60
2021/12/28 09:50:24;;;;;;;29.00;17.93;;;6.80;96.80;;;;;;5076926;28;20424;-61
2021/12/28 09:52:51;;;;;;;26.27;17.93;;;6.30;96.80;;;;;;5076701;28;20439;-61
2021/12/28 09:55:20;;;;;;;23.33;17.40;;;6.00;97.90;;;;;;5070316;28;20181;-61
2021/12/28 09:57:45;;;;;;;26.27;18.40;;;6.50;98.00;;;;;;5085862;28;20793;-61
2021/12/28 10:00:13;;;;;;;22.10;17.37;;;6.80;97.60;;;;;;5073911;28;20423;-61
2021/12/28 10:02:38;;;;;;;26.10;17.17;;;7.00;96.70;;;;;;5076345;28;20423;-61
2021/12/28 10:05:10;;;;;;;24.83;17.90;;;7.40;96.40;;;;;;5059576;28;20436;-62
2021/12/28 10:07:42;;;;;;;21.10;17.43;;;7.40;94.90;;;;;;5078797;28;20430;-61
2021/12/28 10:10:08;;;;;;;22.50;17.47;;;7.30;94.60;;;;;;5077035;28;20458;-61
2021/12/28 10:12:37;;;;;;;20.43;17.00;;;7.10;95.40;;;;;;5079382;28;20428;-61
2021/12/28 10:15:08;;;;;;;22.67;16.03;;;7.20;95.60;;;;;;5075087;28;20447;-60
2021/12/28 10:17:35;;;;;;;23.33;17.93;;;7.30;95.60;;;;;;5066128;28;20487;-62
2021/12/28 10:20:07;;;;;;;26.57;17.87;;;7.10;95.80;;;;;;5067022;28;20444;-62
2021/12/28 10:22:42;;;;;;;25.13;17.60;;;7.10;96.50;;;;;;5067285;28;20564;-61
2021/12/28 10:25:12;;;;;;;25.13;17.40;;;7.40;95.80;;;;;;5067633;28;20563;-62
2021/12/28 10:27:59;;;;;;;23.50;18.13;;;7.50;94.60;;;;;;5069438;28;20427;-62
2021/12/28 10:30:36;;;;;;;22.37;17.07;;;7.40;94.50;;;;;;5069625;28;20431;-60
2021/12/28 10:33:05;;;;;;;23.70;17.10;;;7.70;94.50;;;;;;5064916;28;20439;-62
2021/12/28 10:35:35;;;;;;;21.13;17.23;;;8.10;93.80;;;;;;5072353;28;20440;-61
2021/12/28 10:38:10;;;;;;;24.37;17.10;;;8.50;92.80;;;;;;5061998;28;20470;-61
2021/12/28 10:40:42;;;;;;;22.60;17.03;;;8.40;92.30;;;;;;5072916;28;20431;-62
2021/12/28 10:43:14;;;;;;;20.57;16.57;;;8.60;91.90;;;;;;5071055;28;20435;-61
2021/12/28 10:45:43;;;;;;;23.73;16.90;;;8.30;91.50;;;;;;5073434;28;20420;-61
2021/12/28 10:48:16;;;;;;;24.00;18.40;;;8.00;92.10;;;;;;5073194;28;20454;-62
2021/12/28 10:50:48;;;;;;;25.23;16.87;;;8.20;92.20;;;;;;5075448;28;20489;-61
2021/12/28 10:53:19;;;;;;;23.70;16.73;;;8.10;92.20;;;;;;5079005;28;20432;-60
2021/12/28 10:55:51;;;;;;;22.80;17.40;;;8.10;92.20;;;;;;5074259;28;20431;-61
2021/12/28 10:58:41;;;;;;;21.47;17.17;;;8.30;92.10;;;;;;5068942;28;20466;-61
2021/12/28 11:01:11;;;;;;;20.53;15.90;;;8.40;91.70;;;;;;5071155;28;20496;-60
2021/12/28 11:03:40;;;;;;;24.00;16.93;;;8.00;92.50;;;;;;5062318;28;20964;-61
2021/12/28 11:06:13;;;;;;;21.30;16.70;;;7.60;92.80;;;;;;5057942;28;20463;-61
2021/12/28 11:08:39;;;;;;;21.30;17.30;;;7.30;93.80;;;;;;5077146;28;21221;-60
2021/12/28 11:11:10;;;;;;;19.90;15.10;;;6.80;94.80;;;;;;5073480;28;20429;-62
2021/12/28 11:13:37;;;;;;;20.60;16.70;;;6.50;95.50;;;;;;5060812;28;20431;-62
2021/12/28 11:16:06;;;;;;;19.83;15.60;;;6.40;97.00;;;;;;5064233;28;20471;-62
2021/12/28 11:18:47;;;;;;;22.73;15.97;;;6.50;98.10;;;;;;5059538;28;20852;-62
2021/12/28 11:21:15;;;;;;;22.37;16.03;;;7.10;96.90;;;;;;5063512;28;20551;-60
2021/12/28 11:23:42;;;;;;;20.60;16.53;;;7.60;96.00;;;;;;5066176;28;21246;-56
2021/12/28 11:26:10;;;;;;;20.40;17.20;;;7.50;95.10;;;;;;5065697;28;20515;-62
2021/12/28 11:28:37;;;;;;;25.90;18.00;;;7.50;95.50;;;;;;5046329;28;20435;-61
2021/12/28 11:31:08;;;;;;;19.30;16.30;;;8.00;95.00;;;;;;5065721;28;20486;-63
2021/12/28 11:33:45;;;;;;;22.73;17.60;;;8.30;94.00;;;;;;5063819;28;20428;-60
2021/12/28 11:36:11;;;;;;;23.60;18.10;;;8.40;93.20;;;;;;5063978;28;20427;-62
2021/12/28 11:38:37;;;;;;;23.20;17.83;;;8.40;93.10;;;;;;5056833;28;21971;-62
2021/12/28 11:41:05;;;;;;;26.80;19.27;;;8.60;93.00;;;;;;5060901;28;20472;-61
2021/12/28 11:43:34;;;;;;;23.27;18.80;;;8.50;92.90;;;;;;5055705;28;20439;-61
2021/12/28 11:45:59;;;;;;;22.73;18.23;;;7.90;93.30;;;;;;5054883;28;20947;-62
2021/12/28 11:48:25;;;;;;;25.40;18.60;;;7.40;94.60;;;;;;5057177;28;20478;-61
2021/12/28 11:50:51;;;;;;;23.93;18.80;;;6.60;96.20;;;;;;5060108;28;20182;-55
2021/12/28 11:53:17;;;;;;;21.60;17.30;;;5.80;99.90;;;;;;5066950;28;20577;-61
2021/12/28 11:55:43;;;;;;;22.47;17.73;;;5.40;99.90;;;;;;5068119;28;20197;-54
2021/12/28 11:58:09;;;;;;;26.90;17.77;;;4.90;99.90;;;;;;5070005;28;20988;-61
2021/12/28 12:00:39;;;;;;;22.40;17.13;;;4.70;99.90;;;;;;5073714;28;20429;-61
2021/12/28 12:03:06;;;;;;;21.17;15.90;;;4.80;99.90;;;;;;5066776;28;20196;-61
2021/12/28 12:05:33;;;;;;;19.55;15.20;;;5.10;99.90;;;;;;5075373;28;20266;-61
2021/12/28 12:08:12;;;;;;;20.60;15.20;;;5.30;99.90;;;;;;5081586;28;20181;-61
2021/12/28 12:10:41;;;;;;;22.77;17.08;;;5.50;99.90;;;;;;5078631;28;20584;-62
2021/12/28 12:13:22;;;;;;;23.98;15.98;;;5.40;99.90;;;;;;5075710;28;20188;-61
2021/12/28 12:15:51;;;;;;;25.38;17.90;;;5.30;99.90;;;;;;5076296;28;20196;-60
2021/12/28 12:18:20;;;;;;;28.58;18.92;;;5.00;99.90;;;;;;5064175;28;20233;-62
2021/12/28 12:20:53;;;;;;;24.17;17.75;;;4.80;99.90;;;;;;5041369;28;20255;-61
2021/12/28 12:23:22;;;;;;;24.20;17.15;;;4.60;99.90;;;;;;5056353;28;20170;-61
2021/12/28 12:25:58;;;;;;;24.88;17.00;;;4.40;99.90;;;;;;5062422;28;20252;-62
2021/12/28 12:28:37;;;;;;;28.08;18.05;;;4.30;99.90;;;;;;5056801;28;20181;-65
2021/12/28 12:31:05;;;;;;;24.75;18.08;;;4.20;99.90;;;;;;5063738;28;20561;-61
2021/12/28 12:33:40;;;;;;;24.13;16.63;;;3.90;99.90;;;;;;5081831;28;20524;-64
2021/12/28 12:36:08;;;;;;;24.02;16.10;;;4.00;99.90;;;;;;5069631;28;20874;-60
2021/12/28 12:38:36;;;;;;;23.90;16.10;;;4.00;99.90;;;;;;5065692;28;20253;-64